Time;durP1;ratioP1;P1;durP2;ratioP2;P2;SDS_P1;SDS_P2;PMS_P1;PMS_P2;Temp;Humidity;BMP_temperature;BMP_pressure;BME280_temperature;BME280_humidity;BME280_pressure;Samples;Min_cycle;Max_cycle;Signal;HPM_P1;HPM_P2
2023/12/11 00:01:06;;;;;;;51.33;11.10;;;;;;;;;;5034140;28;20041;-64
2023/12/11 00:03:32;;;;;;;61.97;9.07;;;;;;;;;;5032250;28;20052;-64
2023/12/11 00:05:58;;;;;;;55.97;10.10;;;;;;;;;;5051285;28;20167;-64
2023/12/11 00:08:25;;;;;;;67.65;8.43;;;;;;;;;;5014188;28;20048;-64
2023/12/11 00:10:51;;;;;;;52.33;8.43;;;;;;;;;;5030146;28;20113;-63
2023/12/11 00:13:17;;;;;;;43.30;7.75;;;;;;;;;;5046576;28;20099;-64
2023/12/11 00:15:43;;;;;;;58.13;8.10;;;;;;;;;;5050745;28;20139;-64
2023/12/11 00:18:09;;;;;;;58.40;8.57;;;;;;;;;;5051252;28;20143;-64
2023/12/11 00:20:36;;;;;;;63.70;9.40;;;;;;;;;;5034705;28;20401;-64
2023/12/11 00:23:02;;;;;;;53.78;7.68;;;;;;;;;;5033811;28;20420;-64
2023/12/11 00:25:28;;;;;;;58.45;7.82;;;;;;;;;;5032008;28;20049;-64
2023/12/11 00:27:54;;;;;;;55.67;8.10;;;;;;;;;;5050982;28;20047;-64
2023/12/11 00:30:21;;;;;;;63.60;8.80;;;;;;;;;;5032496;28;20523;-64
2023/12/11 00:32:47;;;;;;;64.47;8.05;;;;;;;;;;5033808;28;20084;-64
2023/12/11 00:35:14;;;;;;;54.80;8.43;;;;;;;;;;5033280;28;20053;-64
2023/12/11 00:37:41;;;;;;;58.63;9.13;;;;;;;;;;5032670;28;20052;-64
2023/12/11 00:40:07;;;;;;;51.08;7.05;;;;;;;;;;5034509;28;20095;-64
2023/12/11 00:42:33;;;;;;;52.13;8.35;;;;;;;;;;5034292;28;20041;-64
2023/12/11 00:45:00;;;;;;;65.05;9.82;;;;;;;;;;5032917;28;20059;-64
2023/12/11 00:47:26;;;;;;;65.47;8.68;;;;;;;;;;5051850;28;20045;-64
2023/12/11 00:49:52;;;;;;;55.38;8.52;;;;;;;;;;5033796;28;20101;-64
2023/12/11 00:52:18;;;;;;;68.25;10.10;;;;;;;;;;5032681;28;20109;-64
2023/12/11 00:54:44;;;;;;;63.03;8.82;;;;;;;;;;5024647;28;20046;-64
2023/12/11 00:57:11;;;;;;;61.05;9.15;;;;;;;;;;5034249;28;20045;-64
2023/12/11 00:59:38;;;;;;;55.92;8.65;;;;;;;;;;5034177;28;20119;-64
2023/12/11 01:02:05;;;;;;;52.42;9.30;;;;;;;;;;5032066;28;20045;-64
2023/12/11 01:04:31;;;;;;;64.88;13.65;;;;;;;;;;5048372;28;20079;-64
2023/12/11 01:06:57;;;;;;;63.63;8.60;;;;;;;;;;5031570;28;20052;-64
2023/12/11 01:09:23;;;;;;;65.10;9.15;;;;;;;;;;5017115;28;20511;-64
2023/12/11 01:11:49;;;;;;;59.00;12.13;;;;;;;;;;5033759;28;20151;-64
2023/12/11 01:14:16;;;;;;;49.25;7.85;;;;;;;;;;5032713;28;20044;-64
2023/12/11 01:16:42;;;;;;;63.38;9.88;;;;;;;;;;5032899;28;20080;-64
2023/12/11 01:19:08;;;;;;;53.38;7.38;;;;;;;;;;5049427;28;20144;-64
2023/12/11 01:21:34;;;;;;;54.85;8.35;;;;;;;;;;5016572;28;20048;-64
2023/12/11 01:24:00;;;;;;;53.53;7.30;;;;;;;;;;5034023;28;20481;-64
2023/12/11 01:26:27;;;;;;;71.30;10.48;;;;;;;;;;5031944;28;20053;-64
2023/12/11 01:28:53;;;;;;;72.60;9.13;;;;;;;;;;5032647;28;20120;-64
2023/12/11 01:31:19;;;;;;;69.93;9.13;;;;;;;;;;5033300;28;20067;-64
2023/12/11 01:33:45;;;;;;;59.38;8.70;;;;;;;;;;5031927;28;20128;-64
2023/12/11 01:36:11;;;;;;;51.50;9.60;;;;;;;;;;5031884;28;20048;-64
2023/12/11 01:38:38;;;;;;;63.55;9.93;;;;;;;;;;5032599;28;20037;-64
2023/12/11 01:41:04;;;;;;;48.40;7.93;;;;;;;;;;5033035;28;20496;-64
2023/12/11 01:43:30;;;;;;;55.58;7.10;;;;;;;;;;5033332;28;20089;-64
2023/12/11 01:46:07;;;;;;;64.15;7.55;;;;;;;;;;5044950;28;20045;-64
2023/12/11 01:48:35;;;;;;;55.50;7.22;;;;;;;;;;5032061;28;20132;-64
2023/12/11 01:51:02;;;;;;;55.58;8.10;;;;;;;;;;5032812;28;20111;-64
2023/12/11 01:53:29;;;;;;;50.03;6.85;;;;;;;;;;5032657;28;20097;-64
2023/12/11 01:55:55;;;;;;;62.92;9.23;;;;;;;;;;5031574;28;20059;-64
2023/12/11 01:58:22;;;;;;;50.78;8.60;;;;;;;;;;5033364;28;20051;-64
2023/12/11 02:00:48;;;;;;;69.30;9.55;;;;;;;;;;5028816;28;20087;-63
2023/12/11 02:03:15;;;;;;;64.35;9.13;;;;;;;;;;5029286;28;20091;-64
2023/12/11 02:05:43;;;;;;;61.83;9.27;;;;;;;;;;5032309;28;20133;-64
2023/12/11 02:08:09;;;;;;;60.03;8.27;;;;;;;;;;5035610;28;20053;-64
2023/12/11 02:10:36;;;;;;;44.53;6.65;;;;;;;;;;5036033;28;20057;-64
2023/12/11 02:13:03;;;;;;;57.72;8.20;;;;;;;;;;5034553;28;20032;-64
2023/12/11 02:15:43;;;;;;;81.85;10.73;;;;;;;;;;5031540;28;20576;-64
2023/12/11 02:18:10;;;;;;;61.80;8.43;;;;;;;;;;5053669;28;20148;-64
2023/12/11 02:20:37;;;;;;;73.15;11.82;;;;;;;;;;5036735;28;20088;-64
2023/12/11 02:23:04;;;;;;;59.92;9.10;;;;;;;;;;5032688;28;20168;-64
2023/12/11 02:25:32;;;;;;;72.03;9.20;;;;;;;;;;5037547;28;20076;-64
2023/12/11 02:27:58;;;;;;;64.00;8.88;;;;;;;;;;5036218;28;20084;-64
2023/12/11 02:30:25;;;;;;;63.13;8.38;;;;;;;;;;5047046;28;20042;-64
2023/12/11 02:32:52;;;;;;;77.28;8.82;;;;;;;;;;5021970;28;20124;-64
2023/12/11 02:35:18;;;;;;;60.50;10.30;;;;;;;;;;5035976;28;20049;-64
2023/12/11 02:37:44;;;;;;;74.97;9.52;;;;;;;;;;5034547;28;20126;-64
2023/12/11 02:40:11;;;;;;;61.88;7.70;;;;;;;;;;5035829;28;20045;-64
2023/12/11 02:42:37;;;;;;;70.90;10.02;;;;;;;;;;5034507;28;20065;-64
2023/12/11 02:45:03;;;;;;;70.97;8.80;;;;;;;;;;5034071;28;20115;-63
2023/12/11 02:47:29;;;;;;;66.43;10.15;;;;;;;;;;5036428;28;20049;-64
2023/12/11 02:49:55;;;;;;;72.95;8.65;;;;;;;;;;5034567;28;20120;-64
2023/12/11 02:52:23;;;;;;;68.85;10.50;;;;;;;;;;5035434;28;20487;-64
2023/12/11 02:54:49;;;;;;;71.50;9.20;;;;;;;;;;5035896;28;20041;-64
2023/12/11 02:57:16;;;;;;;62.40;7.63;;;;;;;;;;5053705;28;20048;-64
2023/12/11 02:59:43;;;;;;;62.45;9.55;;;;;;;;;;5034532;28;20082;-64
2023/12/11 03:02:09;;;;;;;70.38;9.55;;;;;;;;;;5034331;28;20435;-64
2023/12/11 03:04:35;;;;;;;73.38;8.30;;;;;;;;;;5033869;28;20127;-64
2023/12/11 03:07:01;;;;;;;72.55;10.75;;;;;;;;;;5036152;28;20471;-64
2023/12/11 03:09:28;;;;;;;68.45;11.32;;;;;;;;;;5033871;28;20103;-64
2023/12/11 03:11:54;;;;;;;76.68;12.25;;;;;;;;;;5046122;28;20080;-64
2023/12/11 03:14:20;;;;;;;68.90;8.52;;;;;;;;;;5051602;28;20052;-64
2023/12/11 03:16:49;;;;;;;67.57;10.18;;;;;;;;;;5051946;28;20072;-63
2023/12/11 03:19:18;;;;;;;73.70;10.02;;;;;;;;;;5051226;28;20064;-64
2023/12/11 03:21:44;;;;;;;81.78;10.00;;;;;;;;;;5047769;28;20396;-64
2023/12/11 03:24:11;;;;;;;68.85;8.55;;;;;;;;;;5034947;28;20091;-64
2023/12/11 03:26:37;;;;;;;65.85;8.80;;;;;;;;;;5034908;28;20473;-64
2023/12/11 03:29:03;;;;;;;79.25;8.70;;;;;;;;;;5035195;28;20041;-64
2023/12/11 03:31:29;;;;;;;82.93;9.00;;;;;;;;;;5034878;28;20103;-64
2023/12/11 03:33:55;;;;;;;68.75;8.75;;;;;;;;;;5052563;28;20029;-64
2023/12/11 03:36:21;;;;;;;79.90;11.77;;;;;;;;;;5035238;28;20049;-64
2023/12/11 03:38:48;;;;;;;79.03;10.50;;;;;;;;;;5035122;28;20059;-64
2023/12/11 03:41:14;;;;;;;64.97;8.85;;;;;;;;;;5052414;28;20056;-64
2023/12/11 03:43:40;;;;;;;82.00;10.27;;;;;;;;;;5050908;28;20419;-64
2023/12/11 03:46:06;;;;;;;73.45;11.38;;;;;;;;;;5034594;28;20045;-64
2023/12/11 03:48:32;;;;;;;84.72;10.45;;;;;;;;;;5033949;28;20464;-64
2023/12/11 03:50:59;;;;;;;79.80;12.07;;;;;;;;;;5033065;28;20053;-64
2023/12/11 03:53:25;;;;;;;77.85;10.15;;;;;;;;;;5030500;28;20562;-64
2023/12/11 03:55:52;;;;;;;100.47;13.35;;;;;;;;;;5033807;28;20056;-64
2023/12/11 03:58:19;;;;;;;83.43;13.15;;;;;;;;;;5034115;28;20045;-64
2023/12/11 04:00:45;;;;;;;72.28;9.40;;;;;;;;;;5053030;28;20048;-64
2023/12/11 04:03:11;;;;;;;78.30;9.40;;;;;;;;;;5034239;28;20476;-64
2023/12/11 04:05:38;;;;;;;83.88;12.23;;;;;;;;;;5018009;28;20049;-64
2023/12/11 04:08:04;;;;;;;75.03;10.88;;;;;;;;;;5052836;28;20040;-64
2023/12/11 04:10:31;;;;;;;71.55;9.27;;;;;;;;;;5032635;28;20469;-64
2023/12/11 04:12:59;;;;;;;82.53;13.95;;;;;;;;;;5032281;28;20053;-64
2023/12/11 04:15:25;;;;;;;69.60;11.18;;;;;;;;;;5050083;28;20440;-64
2023/12/11 04:17:51;;;;;;;67.03;11.60;;;;;;;;;;5033983;28;20037;-64
2023/12/11 04:20:18;;;;;;;71.82;10.55;;;;;;;;;;5052463;28;20099;-64
2023/12/11 04:22:44;;;;;;;64.30;10.27;;;;;;;;;;5032930;28;20041;-64
2023/12/11 04:25:10;;;;;;;69.00;9.15;;;;;;;;;;5034557;28;20045;-64
2023/12/11 04:27:36;;;;;;;61.92;8.85;;;;;;;;;;5018065;28;20135;-64
2023/12/11 04:30:04;;;;;;;63.13;9.98;;;;;;;;;;5032607;28;20044;-64
2023/12/11 04:32:30;;;;;;;63.40;8.90;;;;;;;;;;5018052;28;20067;-64
2023/12/11 04:34:57;;;;;;;67.72;9.65;;;;;;;;;;5033944;28;20051;-64
2023/12/11 04:37:23;;;;;;;63.88;10.48;;;;;;;;;;5013677;28;20041;-63
2023/12/11 04:39:49;;;;;;;69.95;8.70;;;;;;;;;;5051307;28;20063;-64
2023/12/11 04:42:15;;;;;;;68.10;8.07;;;;;;;;;;5050531;28;20041;-64
2023/12/11 04:44:41;;;;;;;55.80;8.88;;;;;;;;;;5032826;28;20476;-64
2023/12/11 04:47:07;;;;;;;52.30;8.25;;;;;;;;;;5033984;28;20049;-64
2023/12/11 04:49:34;;;;;;;63.22;9.60;;;;;;;;;;5017768;28;20041;-64
2023/12/11 04:52:00;;;;;;;58.08;8.38;;;;;;;;;;5049714;28;20044;-64
2023/12/11 04:54:26;;;;;;;53.83;7.20;;;;;;;;;;5051094;28;20443;-64
2023/12/11 04:56:52;;;;;;;39.15;7.10;;;;;;;;;;5050999;28;20139;-64
2023/12/11 04:59:18;;;;;;;57.83;8.93;;;;;;;;;;5033215;28;20053;-64
2023/12/11 05:01:45;;;;;;;78.80;12.32;;;;;;;;;;5017121;28;20060;-64
2023/12/11 05:04:11;;;;;;;50.88;7.47;;;;;;;;;;5050270;28;20365;-64
2023/12/11 05:06:37;;;;;;;61.80;10.27;;;;;;;;;;5051513;28;20049;-64
2023/12/11 05:09:03;;;;;;;48.85;7.63;;;;;;;;;;5050794;28;20466;-64
2023/12/11 05:11:30;;;;;;;49.47;8.82;;;;;;;;;;5020320;28;20100;-64
2023/12/11 05:13:56;;;;;;;50.50;9.60;;;;;;;;;;5016233;28;20426;-64
2023/12/11 05:16:22;;;;;;;43.63;6.68;;;;;;;;;;5033466;28;20053;-64
2023/12/11 05:18:48;;;;;;;57.33;9.10;;;;;;;;;;5029606;28;20063;-64
2023/12/11 05:21:14;;;;;;;47.63;7.47;;;;;;;;;;5029715;28;20045;-65
2023/12/11 05:23:40;;;;;;;55.15;7.03;;;;;;;;;;5004356;28;20113;-64
2023/12/11 05:26:07;;;;;;;40.65;6.00;;;;;;;;;;5027224;28;20053;-64
2023/12/11 05:28:33;;;;;;;57.08;10.00;;;;;;;;;;5030870;28;20068;-64
2023/12/11 05:30:59;;;;;;;44.05;6.78;;;;;;;;;;5011153;28;20053;-64
2023/12/11 05:33:25;;;;;;;44.63;6.63;;;;;;;;;;5022986;28;20482;-64
2023/12/11 05:35:52;;;;;;;51.58;7.70;;;;;;;;;;5025290;28;20049;-64
2023/12/11 05:38:18;;;;;;;50.45;7.28;;;;;;;;;;5030857;28;20099;-64
2023/12/11 05:40:45;;;;;;;49.92;7.07;;;;;;;;;;5021663;28;20050;-64
2023/12/11 05:43:11;;;;;;;54.00;6.90;;;;;;;;;;5028231;28;20057;-64
2023/12/11 05:45:37;;;;;;;45.38;7.18;;;;;;;;;;5031666;28;20048;-64
2023/12/11 05:48:04;;;;;;;40.03;6.72;;;;;;;;;;5030336;28;20460;-64
2023/12/11 05:50:30;;;;;;;47.42;8.13;;;;;;;;;;5030968;28;20401;-64
2023/12/11 05:52:56;;;;;;;38.30;6.32;;;;;;;;;;5031492;28;20041;-63
2023/12/11 05:55:22;;;;;;;43.47;7.53;;;;;;;;;;5030959;28;20441;-64
2023/12/11 05:57:48;;;;;;;45.85;5.85;;;;;;;;;;5031937;28;20121;-64
2023/12/11 06:00:15;;;;;;;43.90;7.53;;;;;;;;;;5030162;28;20077;-64
2023/12/11 06:02:41;;;;;;;38.90;6.00;;;;;;;;;;5023948;28;20037;-64
2023/12/11 06:05:08;;;;;;;37.47;6.75;;;;;;;;;;5030525;28;20076;-64
2023/12/11 06:07:35;;;;;;;40.03;7.18;;;;;;;;;;5028752;28;20155;-64
2023/12/11 06:10:01;;;;;;;44.20;7.32;;;;;;;;;;5028639;28;20095;-64
2023/12/11 06:12:27;;;;;;;48.72;7.25;;;;;;;;;;5030369;28;20049;-64
2023/12/11 06:14:53;;;;;;;49.88;8.60;;;;;;;;;;5029300;28;20107;-64
2023/12/11 06:17:20;;;;;;;43.45;7.07;;;;;;;;;;5024074;28;20065;-64
2023/12/11 06:19:46;;;;;;;47.65;7.15;;;;;;;;;;5028275;28;20061;-64
2023/12/11 06:22:12;;;;;;;55.30;5.93;;;;;;;;;;5029734;28;20413;-63
2023/12/11 06:24:41;;;;;;;43.15;6.47;;;;;;;;;;5030472;28;20050;-63
2023/12/11 06:27:09;;;;;;;40.63;5.72;;;;;;;;;;5021804;28;20053;-64
2023/12/11 06:29:36;;;;;;;49.20;8.02;;;;;;;;;;5023256;28;20084;-64
2023/12/11 06:32:02;;;;;;;41.78;5.78;;;;;;;;;;5026949;28;20115;-64
2023/12/11 06:34:30;;;;;;;42.58;6.35;;;;;;;;;;5028523;28;20041;-64
2023/12/11 06:36:56;;;;;;;51.15;6.57;;;;;;;;;;5028591;28;20057;-64
2023/12/11 06:39:23;;;;;;;51.42;7.63;;;;;;;;;;5030796;28;20220;-64
2023/12/11 06:41:49;;;;;;;47.35;5.97;;;;;;;;;;5029074;28;20097;-64
2023/12/11 06:44:15;;;;;;;46.67;6.40;;;;;;;;;;5018223;28;20037;-64
2023/12/11 06:46:41;;;;;;;45.90;5.75;;;;;;;;;;5030268;28;20045;-64
2023/12/11 06:49:07;;;;;;;43.83;5.93;;;;;;;;;;5021905;28;20061;-64
2023/12/11 06:51:35;;;;;;;44.30;6.47;;;;;;;;;;5044741;28;20555;-64
2023/12/11 06:54:01;;;;;;;46.42;6.72;;;;;;;;;;5032840;28;20041;-64
2023/12/11 06:56:31;;;;;;;32.53;6.43;;;;;;;;;;5033349;28;20559;-64
2023/12/11 06:58:58;;;;;;;41.15;5.43;;;;;;;;;;5031336;28;20037;-64
2023/12/11 07:01:30;;;;;;;40.33;6.53;;;;;;;;;;5031889;28;20073;-64
2023/12/11 07:03:57;;;;;;;38.22;6.60;;;;;;;;;;5030619;28;20374;-64
2023/12/11 07:06:23;;;;;;;43.53;7.22;;;;;;;;;;5033078;28;20053;-64
2023/12/11 07:08:50;;;;;;;44.38;8.30;;;;;;;;;;5031856;28;20508;-64
2023/12/11 07:11:17;;;;;;;48.00;7.45;;;;;;;;;;5028304;28;20504;-64
2023/12/11 07:13:43;;;;;;;46.03;6.53;;;;;;;;;;5025401;28;20065;-64
2023/12/11 07:16:09;;;;;;;50.78;7.30;;;;;;;;;;5032158;28;20493;-64
2023/12/11 07:18:36;;;;;;;49.20;4.93;;;;;;;;;;5028955;28;20045;-64
2023/12/11 07:21:02;;;;;;;39.50;7.05;;;;;;;;;;5033794;28;20045;-64
2023/12/11 07:23:29;;;;;;;35.90;5.38;;;;;;;;;;5034349;28;20072;-64
2023/12/11 07:25:55;;;;;;;39.72;5.45;;;;;;;;;;5032618;28;20045;-64
2023/12/11 07:28:21;;;;;;;44.35;6.43;;;;;;;;;;5033156;28;20057;-64
2023/12/11 07:30:48;;;;;;;33.85;5.25;;;;;;;;;;5008431;28;20056;-64
2023/12/11 07:33:14;;;;;;;52.47;7.93;;;;;;;;;;5030178;28;20461;-64
2023/12/11 07:35:40;;;;;;;45.78;5.85;;;;;;;;;;5034132;28;20116;-64
2023/12/11 07:38:06;;;;;;;46.42;6.35;;;;;;;;;;5029838;28;20509;-64
2023/12/11 07:40:32;;;;;;;41.97;6.63;;;;;;;;;;5026662;28;20061;-64
2023/12/11 07:42:59;;;;;;;35.92;4.88;;;;;;;;;;5028264;28;20043;-64
2023/12/11 07:45:28;;;;;;;37.25;5.90;;;;;;;;;;5027449;28;20041;-64
2023/12/11 07:47:55;;;;;;;35.85;6.10;;;;;;;;;;5019941;28;20061;-64
2023/12/11 07:50:21;;;;;;;39.22;5.32;;;;;;;;;;5025116;28;20114;-64
2023/12/11 07:52:47;;;;;;;41.28;6.55;;;;;;;;;;5029528;28;20392;-64
2023/12/11 07:55:13;;;;;;;40.35;6.38;;;;;;;;;;5029470;28;20045;-64
2023/12/11 07:57:39;;;;;;;42.35;6.28;;;;;;;;;;5007478;28;20444;-64
2023/12/11 08:00:06;;;;;;;52.72;6.82;;;;;;;;;;5029761;28;20136;-64
2023/12/11 08:02:34;;;;;;;41.72;6.05;;;;;;;;;;5031386;28;20045;-64
2023/12/11 08:05:00;;;;;;;29.67;4.90;;;;;;;;;;5031013;28;20045;-64
2023/12/11 08:07:27;;;;;;;38.38;5.68;;;;;;;;;;5037686;28;20045;-63
2023/12/11 08:09:53;;;;;;;38.47;5.93;;;;;;;;;;5030251;28;20049;-64
2023/12/11 08:12:19;;;;;;;47.70;6.55;;;;;;;;;;5030552;28;20089;-63
2023/12/11 08:14:46;;;;;;;39.65;5.75;;;;;;;;;;5031165;28;20106;-64
2023/12/11 08:17:12;;;;;;;48.70;6.57;;;;;;;;;;5031926;28;20049;-63
2023/12/11 08:19:38;;;;;;;44.05;6.50;;;;;;;;;;5031518;28;20085;-63
2023/12/11 08:22:05;;;;;;;46.00;7.22;;;;;;;;;;5030444;28;20127;-63
2023/12/11 08:24:31;;;;;;;39.22;5.80;;;;;;;;;;5014234;28;20041;-63
2023/12/11 08:26:57;;;;;;;31.98;7.18;;;;;;;;;;5031514;28;20042;-63
2023/12/11 08:29:23;;;;;;;44.97;7.88;;;;;;;;;;5030538;28;20489;-63
2023/12/11 08:31:50;;;;;;;42.05;7.50;;;;;;;;;;5029763;28;20041;-64
2023/12/11 08:34:16;;;;;;;38.33;5.43;;;;;;;;;;5031944;28;20053;-63
2023/12/11 08:36:43;;;;;;;40.13;5.85;;;;;;;;;;5031184;28;20485;-63
2023/12/11 08:39:10;;;;;;;45.50;6.20;;;;;;;;;;5031745;28;20473;-63
2023/12/11 08:41:36;;;;;;;35.17;5.38;;;;;;;;;;5022929;28;20057;-63
2023/12/11 08:44:03;;;;;;;41.92;6.72;;;;;;;;;;5026382;28;20432;-63
2023/12/11 08:46:31;;;;;;;39.15;5.05;;;;;;;;;;5026225;28;20195;-63
2023/12/11 08:48:58;;;;;;;33.45;7.55;;;;;;;;;;5029879;28;20041;-63
2023/12/11 08:51:24;;;;;;;39.53;5.85;;;;;;;;;;5029861;28;20076;-63
2023/12/11 08:53:51;;;;;;;43.40;7.32;;;;;;;;;;5025891;28;20041;-63
2023/12/11 08:56:19;;;;;;;31.17;5.60;;;;;;;;;;5034314;28;20041;-63
2023/12/11 08:58:48;;;;;;;31.48;4.70;;;;;;;;;;5025029;28;20073;-63
2023/12/11 09:01:15;;;;;;;28.65;4.78;;;;;;;;;;5029786;28;20045;-63
2023/12/11 09:03:42;;;;;;;34.08;5.00;;;;;;;;;;5031982;28;20045;-63
2023/12/11 09:06:09;;;;;;;37.20;4.70;;;;;;;;;;5031485;28;20477;-63
2023/12/11 09:08:35;;;;;;;40.08;5.28;;;;;;;;;;5028413;28;20146;-63
2023/12/11 09:11:02;;;;;;;30.63;5.05;;;;;;;;;;5029946;28;20400;-63
2023/12/11 09:13:28;;;;;;;34.53;5.88;;;;;;;;;;5031050;28;20045;-63
2023/12/11 09:15:54;;;;;;;36.22;4.80;;;;;;;;;;5030774;28;20053;-64
2023/12/11 09:18:20;;;;;;;37.85;4.63;;;;;;;;;;5013548;28;20050;-64
2023/12/11 09:20:46;;;;;;;31.25;4.70;;;;;;;;;;5029877;28;20063;-63
2023/12/11 09:23:13;;;;;;;36.35;6.45;;;;;;;;;;5012689;28;20041;-63
2023/12/11 09:25:39;;;;;;;31.33;4.38;;;;;;;;;;5028443;28;20060;-63
2023/12/11 09:28:05;;;;;;;30.55;4.82;;;;;;;;;;5029318;28;20037;-63
2023/12/11 09:30:31;;;;;;;35.97;5.10;;;;;;;;;;5025318;28;20060;-63
2023/12/11 09:32:58;;;;;;;34.70;4.40;;;;;;;;;;5030947;28;20041;-63
2023/12/11 09:35:24;;;;;;;41.45;5.07;;;;;;;;;;5027881;28;20095;-63
2023/12/11 09:37:50;;;;;;;40.80;4.47;;;;;;;;;;5028326;28;20046;-63
2023/12/11 09:40:16;;;;;;;49.55;6.93;;;;;;;;;;5030231;28;20100;-64
2023/12/11 09:42:45;;;;;;;39.50;5.35;;;;;;;;;;5031132;28;20543;-63
2023/12/11 09:45:12;;;;;;;39.55;7.82;;;;;;;;;;5028249;28;20049;-63
2023/12/11 09:47:49;;;;;;;32.90;5.35;;;;;;;;;;5030527;28;20045;-63
2023/12/11 09:50:16;;;;;;;38.15;5.20;;;;;;;;;;5030729;28;20045;-64
2023/12/11 09:52:43;;;;;;;37.97;5.97;;;;;;;;;;5012093;28;20084;-64
2023/12/11 09:55:09;;;;;;;48.88;6.60;;;;;;;;;;5030020;28;20136;-63
2023/12/11 09:57:37;;;;;;;47.10;5.32;;;;;;;;;;5025545;28;20061;-63
2023/12/11 10:00:04;;;;;;;35.95;4.75;;;;;;;;;;5030485;28;20041;-63
2023/12/11 10:02:31;;;;;;;45.72;6.45;;;;;;;;;;5029108;28;20041;-63
2023/12/11 10:05:09;;;;;;;34.90;5.68;;;;;;;;;;5030404;28;20045;-63
2023/12/11 10:07:42;;;;;;;44.28;5.75;;;;;;;;;;5028899;28;20047;-63
2023/12/11 10:10:20;;;;;;;42.63;6.10;;;;;;;;;;5027268;28;20041;-62
2023/12/11 10:12:47;;;;;;;41.65;4.22;;;;;;;;;;5029168;28;20068;-62
2023/12/11 10:15:19;;;;;;;48.63;7.38;;;;;;;;;;5030979;28;20369;-62
2023/12/11 10:17:45;;;;;;;34.15;5.60;;;;;;;;;;5032873;28;20515;-63
2023/12/11 10:20:16;;;;;;;29.55;4.38;;;;;;;;;;5033600;28;20057;-62
2023/12/11 10:22:42;;;;;;;35.42;5.03;;;;;;;;;;5048740;28;20446;-63
2023/12/11 10:25:08;;;;;;;33.38;6.30;;;;;;;;;;5033541;28;20480;-63
2023/12/11 10:27:35;;;;;;;32.80;4.65;;;;;;;;;;5014479;28;20500;-62
2023/12/11 10:30:11;;;;;;;24.95;3.22;;;;;;;;;;5036328;28;20060;-63
2023/12/11 10:32:38;;;;;;;23.50;3.15;;;;;;;;;;5037550;28;20400;-62
2023/12/11 10:35:05;;;;;;;27.20;3.95;;;;;;;;;;5036662;28;20041;-62
2023/12/11 10:37:32;;;;;;;25.38;3.92;;;;;;;;;;5053752;28;20109;-63
2023/12/11 10:39:59;;;;;;;22.48;4.15;;;;;;;;;;5051162;28;20049;-63
2023/12/11 10:42:26;;;;;;;33.00;4.50;;;;;;;;;;5034024;28;20124;-62
2023/12/11 10:44:54;;;;;;;18.98;3.25;;;;;;;;;;5037034;28;20511;-62
2023/12/11 10:47:20;;;;;;;21.27;3.25;;;;;;;;;;5054093;28;20041;-62
2023/12/11 10:49:46;;;;;;;20.27;3.08;;;;;;;;;;5034902;28;20093;-63
2023/12/11 10:52:12;;;;;;;16.98;3.15;;;;;;;;;;5034356;28;20102;-62
2023/12/11 10:54:41;;;;;;;17.00;2.75;;;;;;;;;;5036854;28;20045;-63
2023/12/11 10:57:11;;;;;;;17.25;2.20;;;;;;;;;;5021893;28;20049;-62
2023/12/11 10:59:38;;;;;;;16.83;3.13;;;;;;;;;;5054861;28;20554;-63
2023/12/11 11:02:05;;;;;;;17.15;2.90;;;;;;;;;;5053348;28;20510;-63
2023/12/11 11:04:33;;;;;;;20.77;3.42;;;;;;;;;;5053456;28;20072;-62
2023/12/11 11:07:20;;;;;;;17.48;2.50;;;;;;;;;;5034987;28;20140;-62
2023/12/11 11:09:50;;;;;;;12.25;2.00;;;;;;;;;;5031132;28;20393;-62
2023/12/11 11:12:36;;;;;;;12.35;1.67;;;;;;;;;;5034176;28;20059;-62
2023/12/11 11:15:02;;;;;;;15.95;1.95;;;;;;;;;;4995367;28;20053;-62
2023/12/11 11:17:51;;;;;;;13.98;2.55;;;;;;;;;;5030980;28;20048;-62
2023/12/11 11:20:18;;;;;;;7.22;1.02;;;;;;;;;;5030343;28;20076;-62
2023/12/11 11:22:45;;;;;;;17.83;1.80;;;;;;;;;;5034240;28;20048;-62
2023/12/11 11:25:36;;;;;;;16.38;2.60;;;;;;;;;;5034637;28;20166;-62
2023/12/11 11:28:03;;;;;;;16.70;2.60;;;;;;;;;;5024240;28;20091;-63
2023/12/11 11:30:44;;;;;;;28.58;4.25;;;;;;;;;;5054600;28;20044;-63
2023/12/11 11:33:11;;;;;;;20.60;3.08;;;;;;;;;;5052475;28;20102;-62
2023/12/11 11:35:49;;;;;;;32.42;3.90;;;;;;;;;;5035987;28;20408;-63
2023/12/11 11:38:19;;;;;;;40.45;5.03;;;;;;;;;;5033459;28;20130;-63
2023/12/11 11:40:47;;;;;;;41.78;6.28;;;;;;;;;;5032513;28;20140;-62
2023/12/11 11:43:14;;;;;;;33.97;5.90;;;;;;;;;;5030538;28;20103;-64
2023/12/11 11:45:41;;;;;;;18.55;5.07;;;;;;;;;;5032706;28;20045;-64
2023/12/11 11:48:07;;;;;;;24.08;4.60;;;;;;;;;;5018031;28;20116;-64
2023/12/11 11:50:33;;;;;;;25.80;3.33;;;;;;;;;;5053626;28;20120;-64
2023/12/11 11:53:07;;;;;;;26.35;3.83;;;;;;;;;;5035213;28;20040;-64
2023/12/11 11:55:35;;;;;;;27.67;5.15;;;;;;;;;;5017052;28;20111;-64
2023/12/11 11:58:10;;;;;;;19.25;3.20;;;;;;;;;;5033016;28;20047;-64
2023/12/11 12:00:37;;;;;;;30.45;5.18;;;;;;;;;;5033007;28;20060;-64
2023/12/11 12:03:08;;;;;;;24.92;4.45;;;;;;;;;;5033552;28;20489;-63
2023/12/11 12:05:37;;;;;;;28.70;4.40;;;;;;;;;;5015313;28;20492;-64
2023/12/11 12:08:11;;;;;;;22.73;3.80;;;;;;;;;;5031495;28;20041;-63
2023/12/11 12:10:37;;;;;;;24.45;3.78;;;;;;;;;;5029985;28;20045;-64
2023/12/11 12:13:04;;;;;;;19.52;2.47;;;;;;;;;;5030819;28;20041;-64
2023/12/11 12:15:30;;;;;;;20.90;2.17;;;;;;;;;;5028759;28;20499;-64
2023/12/11 12:18:09;;;;;;;23.85;3.03;;;;;;;;;;5030915;28;20072;-65
2023/12/11 12:20:35;;;;;;;13.70;1.90;;;;;;;;;;5028861;28;20049;-64
2023/12/11 12:23:03;;;;;;;14.55;2.30;;;;;;;;;;5020241;28;20045;-63
2023/12/11 12:25:30;;;;;;;8.73;1.88;;;;;;;;;;5049296;28;20037;-63
2023/12/11 12:27:59;;;;;;;15.40;2.40;;;;;;;;;;5029833;28;20183;-64
2023/12/11 12:30:27;;;;;;;9.73;1.60;;;;;;;;;;5033741;28;20059;-63
2023/12/11 12:32:54;;;;;;;14.45;1.80;;;;;;;;;;5034543;28;20123;-63
2023/12/11 12:35:21;;;;;;;12.50;1.73;;;;;;;;;;5050212;28;20044;-63
2023/12/11 12:37:49;;;;;;;13.43;2.63;;;;;;;;;;5050971;28;20064;-63
2023/12/11 12:40:19;;;;;;;13.30;2.03;;;;;;;;;;5053074;28;20107;-63
2023/12/11 12:42:45;;;;;;;12.90;2.85;;;;;;;;;;5034495;28;20124;-63
2023/12/11 12:45:12;;;;;;;9.75;2.08;;;;;;;;;;5014641;28;20489;-63
2023/12/11 12:47:47;;;;;;;13.07;2.20;;;;;;;;;;5033981;28;20370;-63
2023/12/11 12:50:22;;;;;;;9.52;1.75;;;;;;;;;;5049277;28;20049;-63
2023/12/11 12:52:48;;;;;;;14.23;2.92;;;;;;;;;;5050164;28;20045;-63
2023/12/11 12:55:14;;;;;;;16.45;2.20;;;;;;;;;;5033486;28;20041;-63
2023/12/11 12:57:43;;;;;;;18.27;2.17;;;;;;;;;;5049705;28;20059;-63
2023/12/11 13:00:10;;;;;;;12.93;2.45;;;;;;;;;;5051313;28;20114;-63
2023/12/11 13:02:37;;;;;;;12.25;2.20;;;;;;;;;;5051423;28;20045;-63
2023/12/11 13:05:04;;;;;;;16.50;2.15;;;;;;;;;;5033790;28;20045;-63
2023/12/11 13:07:30;;;;;;;18.85;1.85;;;;;;;;;;5034362;28;20098;-63
2023/12/11 13:09:57;;;;;;;13.43;1.80;;;;;;;;;;5048620;28;20045;-63
2023/12/11 13:12:23;;;;;;;11.27;1.83;;;;;;;;;;5052183;28;20052;-63
2023/12/11 13:14:49;;;;;;;14.93;2.00;;;;;;;;;;5033242;28;20125;-63
2023/12/11 13:17:16;;;;;;;13.00;2.22;;;;;;;;;;5028959;28;20060;-63
2023/12/11 13:19:43;;;;;;;9.98;1.55;;;;;;;;;;5034283;28;20052;-63
2023/12/11 13:22:09;;;;;;;18.30;1.92;;;;;;;;;;5050292;28;20127;-63
2023/12/11 13:24:36;;;;;;;17.27;1.85;;;;;;;;;;5050688;28;20052;-63
2023/12/11 13:27:02;;;;;;;15.00;2.03;;;;;;;;;;5051605;28;20096;-62
2023/12/11 13:29:28;;;;;;;10.35;1.80;;;;;;;;;;5049739;28;20544;-63
2023/12/11 13:31:56;;;;;;;13.07;2.22;;;;;;;;;;5030344;28;20044;-63
2023/12/11 13:34:22;;;;;;;8.02;1.63;;;;;;;;;;5047415;28;20063;-63
2023/12/11 13:36:49;;;;;;;14.27;2.75;;;;;;;;;;5031406;28;20937;-63
2023/12/11 13:39:15;;;;;;;13.05;1.52;;;;;;;;;;5033571;28;20040;-63
2023/12/11 13:41:41;;;;;;;15.50;1.73;;;;;;;;;;5032457;28;20128;-63
2023/12/11 13:44:07;;;;;;;10.13;1.70;;;;;;;;;;5033643;28;20502;-63
2023/12/11 13:46:33;;;;;;;12.75;1.95;;;;;;;;;;5027561;28;20118;-63
2023/12/11 13:49:00;;;;;;;13.40;2.03;;;;;;;;;;5036661;28;20481;-63
2023/12/11 13:51:26;;;;;;;14.90;2.55;;;;;;;;;;5032956;28;20045;-63
2023/12/11 13:53:52;;;;;;;15.30;2.80;;;;;;;;;;5033176;28;20041;-63
2023/12/11 13:56:18;;;;;;;15.70;4.15;;;;;;;;;;5050870;28;20041;-63
2023/12/11 13:58:45;;;;;;;16.60;3.25;;;;;;;;;;5032698;28;20507;-63
2023/12/11 14:01:11;;;;;;;15.57;2.00;;;;;;;;;;5049884;28;20053;-63
2023/12/11 14:03:37;;;;;;;18.63;5.00;;;;;;;;;;5033065;28;20081;-63
2023/12/11 14:06:03;;;;;;;10.25;1.65;;;;;;;;;;5031577;28;20045;-63
2023/12/11 14:08:30;;;;;;;12.65;2.47;;;;;;;;;;5032009;28;20398;-63
2023/12/11 14:10:56;;;;;;;12.35;2.05;;;;;;;;;;5031433;28;20060;-63
2023/12/11 14:13:22;;;;;;;11.88;2.60;;;;;;;;;;5049860;28;20068;-63
2023/12/11 14:15:48;;;;;;;8.57;2.03;;;;;;;;;;5033435;28;20055;-63
2023/12/11 14:18:15;;;;;;;12.77;2.15;;;;;;;;;;5051197;28;20500;-63
2023/12/11 14:20:42;;;;;;;12.70;3.13;;;;;;;;;;5049666;28;20049;-63
2023/12/11 14:23:08;;;;;;;14.25;1.98;;;;;;;;;;5027092;28;20053;-63
2023/12/11 14:25:34;;;;;;;13.10;2.17;;;;;;;;;;5030555;28;20048;-63
2023/12/11 14:28:06;;;;;;;16.75;2.22;;;;;;;;;;5031700;28;20059;-63